Time;durP1;ratioP1;P1;durP2;ratioP2;P2;SDS_P1;SDS_P2;PMS_P1;PMS_P2;Temp;Humidity;BMP_temperature;BMP_pressure;BME280_temperature;BME280_humidity;BME280_pressure;Samples;Min_cycle;Max_cycle;Signal;HPM_P1;HPM_P2
2022/03/19 00:00:05;;;;;;;56.87;32.87;;;6.50;80.00;;;6.99;60.15;99733.97;5026350;28;20056;-41
2022/03/19 00:02:43;;;;;;;60.67;34.63;;;6.50;80.00;;;6.97;60.50;99725.28;5029007;28;20057;-41
2022/03/19 00:05:11;;;;;;;59.57;37.13;;;6.50;80.10;;;6.97;60.70;99726.13;5026133;28;20049;-41
2022/03/19 00:07:42;;;;;;;62.53;33.70;;;6.50;80.00;;;6.96;60.46;99728.84;5025150;28;20055;-41
2022/03/19 00:10:11;;;;;;;57.70;37.23;;;6.50;80.10;;;6.94;60.56;99728.09;5026194;28;20065;-41
2022/03/19 00:12:39;;;;;;;56.40;33.23;;;6.50;80.10;;;6.93;60.14;99726.41;5025318;28;20046;-41
2022/03/19 00:15:10;;;;;;;59.33;36.40;;;6.40;79.90;;;6.92;60.37;99722.03;5026688;28;20533;-41
2022/03/19 00:17:38;;;;;;;63.33;36.77;;;6.50;79.90;;;6.89;60.45;99731.00;5008210;28;20469;-40
2022/03/19 00:20:06;;;;;;;54.13;35.50;;;6.40;80.10;;;6.86;60.15;99725.88;5024829;28;20067;-40
2022/03/19 00:22:36;;;;;;;55.17;33.20;;;6.40;80.30;;;6.85;61.07;99724.19;5025801;28;20061;-40
2022/03/19 00:25:08;;;;;;;61.33;36.57;;;6.40;80.30;;;6.84;60.51;99718.03;5026110;28;20049;-41
2022/03/19 00:27:36;;;;;;;62.47;36.50;;;6.40;80.00;;;6.84;60.31;99722.44;5025607;28;20057;-40
2022/03/19 00:30:05;;;;;;;61.17;34.73;;;6.40;80.00;;;6.83;60.33;99723.41;5025408;28;20057;-41
2022/03/19 00:32:33;;;;;;;60.87;37.40;;;6.40;80.10;;;6.82;60.26;99716.41;5026381;28;20057;-42
2022/03/19 00:35:02;;;;;;;55.40;33.63;;;6.40;80.10;;;6.79;60.64;99719.22;5025535;28;20365;-41
2022/03/19 00:37:32;;;;;;;56.67;34.07;;;6.30;80.10;;;6.78;60.75;99720.16;5024651;28;20049;-41
2022/03/19 00:40:00;;;;;;;58.77;32.73;;;6.30;80.10;;;6.75;60.30;99721.19;5026009;28;20284;-41
2022/03/19 00:42:31;;;;;;;60.63;34.47;;;6.30;80.40;;;6.73;60.99;99717.78;5025519;28;20056;-41
2022/03/19 00:45:05;;;;;;;57.43;34.83;;;6.30;80.30;;;6.72;60.71;99720.50;5025371;28;20065;-40
2022/03/19 00:47:34;;;;;;;56.57;35.67;;;6.30;80.40;;;6.69;60.47;99722.38;5023521;28;20063;-40
2022/03/19 00:50:05;;;;;;;61.97;35.63;;;6.20;80.10;;;6.68;60.59;99712.72;5025749;28;20730;-40
2022/03/19 00:52:34;;;;;;;61.43;34.83;;;6.20;80.10;;;6.66;60.63;99713.75;5025282;28;20171;-40
2022/03/19 00:55:02;;;;;;;55.67;35.93;;;6.20;80.10;;;6.65;60.75;99712.03;5025930;28;20064;-40
2022/03/19 00:57:47;;;;;;;54.27;33.50;;;6.20;79.90;;;6.61;60.93;99718.44;5024443;28;20053;-41
2022/03/19 01:00:23;;;;;;;60.33;35.03;;;6.10;80.10;;;6.60;60.21;99704.38;5024375;28;20048;-41
2022/03/19 01:02:53;;;;;;;54.50;34.50;;;6.10;80.00;;;6.58;60.35;99708.91;5024985;28;20050;-41
2022/03/19 01:05:23;;;;;;;62.30;37.27;;;6.10;80.10;;;6.59;60.65;99707.97;5024486;28;20660;-41
2022/03/19 01:07:55;;;;;;;56.23;34.50;;;6.10;80.10;;;6.59;60.74;99707.09;5025412;28;20046;-41
2022/03/19 01:10:28;;;;;;;58.67;34.23;;;6.10;80.00;;;6.58;60.79;99716.00;5023358;28;20071;-41
2022/03/19 01:12:57;;;;;;;53.03;32.83;;;6.10;80.00;;;6.58;60.93;99719.47;5025060;28;20060;-41
2022/03/19 01:15:25;;;;;;;58.80;35.40;;;6.10;79.90;;;6.57;60.45;99706.31;5024818;28;20358;-41
2022/03/19 01:17:53;;;;;;;58.77;37.67;;;6.10;80.00;;;6.56;60.64;99709.94;5025203;28;20072;-41
2022/03/19 01:20:22;;;;;;;51.70;33.17;;;6.10;79.80;;;6.52;61.05;99711.88;5024278;28;20042;-41
2022/03/19 01:22:50;;;;;;;60.53;35.23;;;6.10;80.10;;;6.50;60.49;99703.19;5023037;28;20061;-41
2022/03/19 01:25:19;;;;;;;52.73;33.43;;;6.00;80.20;;;6.47;61.00;99700.69;5023940;28;20057;-41
2022/03/19 01:27:50;;;;;;;58.37;33.20;;;6.00;80.00;;;6.43;60.35;99705.31;5021933;28;20350;-40
2022/03/19 01:30:24;;;;;;;55.47;35.47;;;6.00;80.40;;;6.41;60.96;99706.34;5023893;28;20057;-40
2022/03/19 01:32:52;;;;;;;60.93;34.87;;;5.90;80.40;;;6.41;61.05;99707.19;5024617;28;20057;-41
2022/03/19 01:35:21;;;;;;;55.13;34.30;;;5.90;80.30;;;6.39;61.10;99706.41;5024130;28;20389;-41
2022/03/19 01:37:50;;;;;;;56.33;33.93;;;5.90;80.30;;;6.38;60.74;99704.72;5024838;28;20046;-41
2022/03/19 01:40:19;;;;;;;54.93;34.17;;;6.00;80.00;;;6.37;60.22;99704.78;5024907;28;20053;-40
2022/03/19 01:42:51;;;;;;;59.97;34.30;;;5.90;80.00;;;6.36;60.17;99703.06;5024855;28;20052;-41
2022/03/19 01:45:23;;;;;;;57.45;33.20;;;5.90;80.00;;;6.35;61.02;99698.75;5024869;28;20059;-41
2022/03/19 01:47:53;;;;;;;54.90;34.60;;;5.90;79.90;;;6.31;61.07;99703.34;5024623;28;20450;-41
2022/03/19 01:50:24;;;;;;;59.80;34.57;;;5.90;79.80;;;6.28;60.91;99690.25;5025593;28;20289;-41
2022/03/19 01:52:53;;;;;;;50.97;32.07;;;5.80;79.90;;;6.25;60.92;99695.75;5024425;28;20083;-41
2022/03/19 01:55:27;;;;;;;64.80;35.63;;;5.80;79.90;;;6.23;60.64;99695.81;5023338;28;20059;-41
2022/03/19 01:57:57;;;;;;;55.50;32.85;;;5.80;79.90;;;6.21;60.30;99691.56;5023631;28;20055;-41
2022/03/19 02:00:25;;;;;;;56.93;33.90;;;5.80;79.90;;;6.21;60.90;99696.84;5024359;28;20232;-41
2022/03/19 02:02:54;;;;;;;59.40;35.43;;;5.80;79.80;;;6.18;60.75;99694.34;5024511;28;20236;-41
2022/03/19 02:05:24;;;;;;;58.47;34.67;;;5.70;79.70;;;6.15;60.33;99694.53;5024467;28;20223;-41
2022/03/19 02:07:52;;;;;;;53.17;32.70;;;5.70;79.80;;;6.11;60.66;99689.41;5024391;28;20359;-41
2022/03/19 02:10:22;;;;;;;57.10;32.53;;;5.60;80.00;;;6.10;60.45;99697.41;5023466;28;20049;-41
2022/03/19 02:12:52;;;;;;;56.43;33.83;;;5.60;80.00;;;6.06;60.84;99691.44;5024747;28;20057;-41
2022/03/19 02:15:20;;;;;;;54.43;31.93;;;5.60;80.10;;;6.05;61.29;99692.38;5024261;28;20061;-41
2022/03/19 02:17:49;;;;;;;50.13;31.73;;;5.60;79.90;;;6.04;60.30;99689.81;5026960;28;20080;-41
2022/03/19 02:20:18;;;;;;;56.37;32.97;;;5.60;80.10;;;6.03;60.77;99688.09;5027378;28;20037;-41
2022/03/19 02:25:35;;;;;;;54.50;34.13;;;5.60;80.20;;;6.05;61.35;99689.75;5028392;28;20373;-41
2022/03/19 02:25:37;;;;;;;51.97;31.50;;;5.70;80.10;;;6.06;61.17;99691.44;5027845;28;20328;-41
2022/03/19 02:28:06;;;;;;;54.47;33.50;;;5.70;79.80;;;6.07;60.89;99684.38;5028506;28;20053;-41
2022/03/19 02:30:39;;;;;;;52.47;31.67;;;5.70;79.90;;;6.09;60.62;99682.50;5025958;28;20064;-41
2022/03/19 02:33:08;;;;;;;57.37;33.43;;;5.70;79.60;;;6.08;60.93;99678.97;5028347;28;20131;-41
2022/03/19 02:35:36;;;;;;;58.67;34.90;;;5.70;79.40;;;6.07;61.17;99679.94;5027791;28;20083;-41
2022/03/19 02:38:04;;;;;;;51.00;32.23;;;5.70;79.60;;;6.07;60.57;99681.72;5028301;28;20077;-42
2022/03/19 02:40:32;;;;;;;52.80;32.83;;;5.60;79.50;;;6.05;60.93;99665.94;5027700;28;20347;-41
2022/03/19 02:43:00;;;;;;;49.60;31.80;;;5.60;79.60;;;6.05;61.15;99671.22;5026321;28;20053;-41
2022/03/19 02:45:28;;;;;;;50.80;30.60;;;5.60;79.60;;;6.04;60.78;99661.56;5027702;28;20049;-41
2022/03/19 02:47:58;;;;;;;55.23;33.10;;;5.60;79.40;;;6.03;60.25;99669.59;5027687;28;20061;-41
2022/03/19 02:50:35;;;;;;;53.67;30.33;;;5.60;79.50;;;6.02;60.57;99668.75;5027101;28;20144;-41
2022/03/19 02:53:09;;;;;;;50.43;32.50;;;5.60;79.50;;;6.00;61.12;99667.97;5027291;28;20049;-41
2022/03/19 02:55:42;;;;;;;51.10;29.25;;;5.50;79.60;;;5.97;60.96;99673.44;5026138;28;20060;-41
2022/03/19 02:58:10;;;;;;;53.47;31.07;;;5.50;79.70;;;5.95;60.63;99672.66;5027527;28;20075;-41
2022/03/19 03:00:39;;;;;;;50.10;31.90;;;5.50;79.60;;;5.94;60.54;99672.72;5027508;28;20045;-41
2022/03/19 03:03:08;;;;;;;55.80;33.47;;;5.50;79.50;;;5.92;60.40;99673.63;5027273;28;20038;-41
2022/03/19 03:05:36;;;;;;;51.57;31.33;;;5.50;80.30;;;5.92;61.29;99663.06;5026771;28;20053;-42
2022/03/19 03:08:05;;;;;;;56.50;31.77;;;5.50;79.60;;;5.94;60.81;99662.16;5026285;28;20049;-41
2022/03/19 03:10:33;;;;;;;55.47;33.07;;;5.50;79.40;;;5.92;60.28;99673.63;5026545;28;20354;-41
2022/03/19 03:13:02;;;;;;;53.73;33.80;;;5.50;79.40;;;5.90;61.14;99664.09;5026517;28;20045;-41
2022/03/19 03:15:30;;;;;;;60.13;34.50;;;5.50;79.40;;;5.92;60.46;99667.50;5026615;28;20057;-41
2022/03/19 03:18:01;;;;;;;53.30;31.57;;;5.50;79.40;;;5.91;61.19;99658.72;5027301;28;20385;-41
2022/03/19 03:20:29;;;;;;;48.87;29.77;;;5.50;79.30;;;5.90;60.75;99658.81;5028078;28;20049;-41
2022/03/19 03:22:57;;;;;;;59.67;33.77;;;5.50;79.10;;;5.90;60.92;99659.66;5027069;28;20053;-41
2022/03/19 03:25:25;;;;;;;60.63;32.77;;;5.50;79.10;;;5.90;60.47;99661.44;5027118;28;20041;-41
2022/03/19 03:27:52;;;;;;;50.93;32.53;;;5.50;79.00;;;5.88;60.72;99658.88;5026068;28;20244;-41
2022/03/19 03:30:20;;;;;;;51.63;29.40;;;5.40;79.00;;;5.88;61.15;99656.25;5027222;28;20057;-41
2022/03/19 03:32:49;;;;;;;48.87;30.67;;;5.40;79.10;;;5.87;60.57;99654.56;5025912;28;20260;-41
2022/03/19 03:35:17;;;;;;;53.67;32.17;;;5.40;79.00;;;5.86;60.97;99657.28;5026867;28;20060;-41
2022/03/19 03:37:45;;;;;;;45.37;30.10;;;5.40;79.00;;;5.83;61.04;99652.97;5026094;28;20046;-41
2022/03/19 03:40:13;;;;;;;58.00;33.07;;;5.30;79.00;;;5.82;61.24;99653.94;5026974;28;20052;-42
2022/03/19 03:42:41;;;;;;;51.87;32.77;;;5.30;79.00;;;5.81;60.40;99646.91;5026799;28;20045;-41
2022/03/19 03:45:10;;;;;;;55.00;30.87;;;5.30;79.20;;;5.80;61.02;99647.88;5026353;28;20053;-41
2022/03/19 03:47:38;;;;;;;57.00;33.03;;;5.30;79.10;;;5.77;60.92;99640.09;5026261;28;20240;-41
2022/03/19 03:50:07;;;;;;;54.37;31.97;;;5.30;79.10;;;5.78;60.65;99646.22;5026059;28;20462;-41
2022/03/19 03:52:36;;;;;;;53.07;31.57;;;5.30;79.00;;;5.78;61.00;99649.75;5026660;28;20350;-41
2022/03/19 03:55:06;;;;;;;53.00;31.07;;;5.30;78.80;;;5.79;60.88;99646.16;5026183;28;20227;-41
2022/03/19 03:57:35;;;;;;;52.43;32.40;;;5.30;78.80;;;5.78;60.62;99644.47;5026625;28;20351;-41
2022/03/19 04:00:05;;;;;;;54.70;33.13;;;5.30;78.70;;;5.78;60.48;99647.09;5026369;28;20219;-41
2022/03/19 04:02:38;;;;;;;54.03;31.03;;;5.30;78.70;;;5.75;60.55;99644.63;5014172;28;20256;-41
2022/03/19 04:05:09;;;;;;;52.30;32.03;;;5.30;78.80;;;5.75;61.09;99641.97;5026386;28;20277;-41
2022/03/19 04:07:37;;;;;;;49.93;29.93;;;5.30;78.80;;;5.77;60.40;99647.19;5025964;28;20053;-41
2022/03/19 04:10:05;;;;;;;55.07;32.60;;;5.30;78.50;;;5.76;60.17;99634.88;5026301;28;20068;-40
2022/03/19 04:12:34;;;;;;;49.93;30.07;;;5.30;78.60;;;5.76;60.72;99641.06;5026151;28;20536;-41
2022/03/19 04:15:04;;;;;;;48.23;30.20;;;5.30;78.60;;;5.78;61.01;99638.28;5025586;28;20355;-41
2022/03/19 04:17:33;;;;;;;53.87;30.50;;;5.40;78.50;;;5.78;60.45;99631.25;5026675;28;20307;-40
2022/03/19 04:20:03;;;;;;;50.90;30.97;;;5.40;78.30;;;5.78;60.53;99640.94;5026614;28;20240;-40
2022/03/19 04:22:40;;;;;;;51.53;30.53;;;5.40;78.40;;;5.79;60.54;99640.03;5024254;28;20045;-40
2022/03/19 04:25:20;;;;;;;55.20;32.93;;;5.40;78.30;;;5.80;61.25;99636.47;5025839;28;20065;-40
2022/03/19 04:27:51;;;;;;;59.20;32.33;;;5.40;78.10;;;5.75;60.40;99628.75;5025433;28;20342;-41
2022/03/19 04:30:22;;;;;;;59.57;34.47;;;5.40;78.00;;;5.76;61.13;99635.75;5024152;28;20072;-41
2022/03/19 04:32:57;;;;;;;52.37;34.10;;;5.40;77.70;;;5.68;61.01;99632.66;5025389;28;20068;-41
2022/03/19 04:38:16;;;;;;;54.97;31.37;;;5.50;77.50;;;5.71;60.51;99637.78;5025000;28;20041;-41
2022/03/19 04:40:46;;;;;;;51.43;29.87;;;5.40;77.30;;;5.72;60.51;99648.28;5025667;28;20056;-41
2022/03/19 04:43:14;;;;;;;54.47;32.17;;;5.40;77.40;;;5.72;60.49;99631.56;5024692;28;20064;-41
2022/03/19 04:45:42;;;;;;;50.57;30.97;;;5.40;77.40;;;5.70;60.54;99638.75;5025062;28;20259;-41
2022/03/19 04:48:11;;;;;;;55.67;32.33;;;5.40;77.00;;;5.69;60.43;99637.84;5025160;28;20049;-41
2022/03/19 04:50:43;;;;;;;50.53;31.57;;;5.40;77.00;;;5.69;60.10;99635.22;5024938;28;20229;-41
2022/03/19 04:53:11;;;;;;;48.73;32.03;;;5.30;77.10;;;5.69;60.36;99639.66;5026401;28;20061;-41
2022/03/19 04:55:40;;;;;;;55.03;33.10;;;5.30;77.20;;;5.67;60.40;99638.88;5023217;28;20427;-41
2022/03/19 04:58:09;;;;;;;54.07;31.77;;;5.30;77.20;;;5.67;60.77;99636.25;5025024;28;20049;-41
2022/03/19 05:00:37;;;;;;;54.10;34.50;;;5.20;77.20;;;5.65;60.57;99638.13;5025796;28;20041;-41
2022/03/19 05:03:07;;;;;;;54.77;34.73;;;5.20;77.20;;;5.63;60.37;99632.06;5026442;28;20041;-41
2022/03/19 05:05:35;;;;;;;56.27;34.17;;;5.30;77.40;;;5.62;60.16;99630.34;5024603;28;20502;-41
2022/03/19 05:08:05;;;;;;;54.50;32.73;;;5.10;77.40;;;5.58;60.05;99636.72;5025152;28;20646;-41
2022/03/19 05:13:20;;;;;;;54.57;32.73;;;5.10;77.40;;;5.51;60.86;99630.91;5024699;28;20049;-41
2022/03/19 05:15:48;;;;;;;51.73;32.07;;;5.00;77.70;;;5.46;60.18;99622.38;5024985;28;20053;-41
2022/03/19 05:18:16;;;;;;;52.07;31.20;;;4.90;78.00;;;5.43;60.03;99628.69;5023986;28;20057;-42
2022/03/19 05:20:44;;;;;;;54.90;33.17;;;4.90;78.00;;;5.41;60.04;99630.56;5024981;28;20063;-41
2022/03/19 05:23:12;;;;;;;48.57;29.90;;;4.90;78.10;;;5.39;60.63;99623.63;5023079;28;20061;-41
2022/03/19 05:25:40;;;;;;;50.47;31.43;;;4.90;78.10;;;5.35;60.12;99630.00;5024722;28;20369;-41
2022/03/19 05:28:08;;;;;;;52.20;30.57;;;4.80;78.00;;;5.30;60.83;99633.75;5025204;28;20049;-41
2022/03/19 05:30:54;;;;;;;49.50;29.50;;;4.80;78.20;;;5.24;61.06;99622.66;5024477;28;20057;-40
2022/03/19 05:34:29;;;;;;;51.57;30.17;;;4.70;78.30;;;5.21;59.99;99623.63;5024045;28;20061;-41
2022/03/19 05:36:10;;;;;;;53.97;31.47;;;4.70;79.30;;;5.18;59.95;99621.19;5022245;28;20111;-41
2022/03/19 05:38:39;;;;;;;52.93;29.97;;;4.70;78.60;;;5.17;60.67;99624.72;5024002;28;20058;-41
2022/03/19 05:41:07;;;;;;;51.87;32.53;;;4.70;78.50;;;5.16;60.28;99624.81;5023478;28;20050;-41
2022/03/19 05:43:35;;;;;;;51.00;30.87;;;4.60;78.50;;;5.12;60.86;99622.34;5024611;28;20053;-41
2022/03/19 05:46:03;;;;;;;50.17;32.37;;;4.60;78.70;;;5.13;60.53;99618.75;5023623;28;20060;-42
2022/03/19 05:48:32;;;;;;;48.93;28.17;;;4.70;78.80;;;5.14;60.95;99622.28;5024698;28;20359;-42
2022/03/19 05:51:01;;;;;;;45.97;28.43;;;4.70;78.80;;;5.15;61.06;99623.97;5024205;28;20462;-42
2022/03/19 05:53:35;;;;;;;52.17;29.63;;;4.70;78.80;;;5.16;60.59;99615.13;5027950;28;20049;-42
2022/03/19 05:56:04;;;;;;;50.03;31.10;;;4.80;78.60;;;5.19;61.06;99616.75;5027980;28;20144;-42
2022/03/19 05:58:32;;;;;;;55.13;29.57;;;4.80;78.60;;;5.21;61.16;99623.63;5028661;28;20057;-41
2022/03/19 06:01:00;;;;;;;54.97;30.47;;;4.80;78.50;;;5.23;60.68;99621.78;5028215;28;20053;-38
2022/03/19 06:03:29;;;;;;;52.63;30.53;;;4.80;78.30;;;5.27;60.48;99622.47;5028333;28;20045;-39
2022/03/19 06:05:57;;;;;;;50.73;31.40;;;4.90;78.30;;;5.29;60.80;99620.59;5027343;28;20055;-39
2022/03/19 06:08:24;;;;;;;52.47;30.20;;;5.00;78.00;;;5.31;61.06;99619.63;5028465;28;20351;-39
2022/03/19 06:10:52;;;;;;;51.13;30.87;;;5.00;77.70;;;5.34;60.70;99615.94;5027937;28;20045;-39
2022/03/19 06:13:20;;;;;;;50.17;30.00;;;5.00;77.80;;;5.36;61.51;99614.06;5026529;28;20065;-39
2022/03/19 06:15:48;;;;;;;50.90;28.90;;;5.00;77.70;;;5.36;61.51;99621.16;5027463;28;20048;-39
2022/03/19 06:18:17;;;;;;;50.27;29.37;;;5.10;77.50;;;5.38;61.15;99620.13;5028930;28;20053;-40
2022/03/19 06:20:45;;;;;;;47.67;29.40;;;5.20;77.20;;;5.41;61.30;99613.81;5028582;28;20075;-39
2022/03/19 06:23:13;;;;;;;47.57;29.27;;;5.20;77.30;;;5.46;60.71;99622.38;5025602;28;20053;-40
2022/03/19 06:25:41;;;;;;;49.30;29.27;;;5.20;77.30;;;5.47;60.58;99622.31;5027537;28;20056;-39
2022/03/19 06:28:09;;;;;;;50.53;30.40;;;5.20;77.20;;;5.48;60.41;99620.50;5027666;28;20058;-39
2022/03/19 06:30:40;;;;;;;55.30;30.60;;;5.30;77.00;;;5.51;60.81;99623.84;5028204;28;20063;-39
2022/03/19 06:33:08;;;;;;;51.63;31.57;;;5.30;77.00;;;5.53;61.37;99624.63;5028433;28;20057;-38
2022/03/19 06:38:28;;;;;;;48.60;29.97;;;5.30;76.90;;;5.61;60.80;99615.44;5028303;28;20042;-38
2022/03/19 06:41:00;;;;;;;48.13;29.27;;;5.30;77.00;;;5.64;60.45;99617.91;5026225;28;20358;-39
2022/03/19 06:43:28;;;;;;;50.13;29.73;;;5.40;76.90;;;5.63;61.33;99616.22;5026696;28;20053;-39
2022/03/19 06:45:58;;;;;;;51.17;29.83;;;5.40;76.70;;;5.61;61.08;99623.38;5027799;28;20049;-38
2022/03/19 06:48:27;;;;;;;48.77;29.90;;;5.40;76.60;;;5.64;61.21;99615.25;5026829;28;20065;-40
2022/03/19 06:50:55;;;;;;;50.47;30.53;;;5.40;76.80;;;5.67;60.91;99615.94;5026644;28;20060;-39
2022/03/19 06:53:23;;;;;;;53.13;31.33;;;5.40;76.80;;;5.68;60.36;99609.75;5026044;28;20049;-39
2022/03/19 06:55:52;;;;;;;49.43;30.37;;;5.40;77.10;;;5.72;60.84;99616.56;5027407;28;20063;-40
2022/03/19 06:58:21;;;;;;;50.53;31.10;;;5.40;77.20;;;5.75;60.50;99607.59;5027473;28;20064;-39
2022/03/19 07:00:49;;;;;;;47.00;30.27;;;5.50;77.40;;;5.80;60.94;99615.31;5027925;28;20049;-39
2022/03/19 07:03:18;;;;;;;48.00;28.43;;;5.50;77.50;;;5.77;61.29;99610.19;5025051;28;20056;-39
2022/03/19 07:05:46;;;;;;;48.10;29.63;;;5.60;77.00;;;5.74;61.76;99605.91;5026586;28;20057;-39
2022/03/19 07:08:13;;;;;;;47.27;29.43;;;5.60;76.90;;;5.78;61.63;99610.09;5026312;28;20060;-39
2022/03/19 07:10:41;;;;;;;48.57;29.47;;;5.70;76.90;;;5.83;61.02;99608.03;5027401;28;20409;-39
2022/03/19 07:13:09;;;;;;;48.87;29.67;;;5.70;77.00;;;5.87;61.30;99601.69;5025495;28;20217;-39
2022/03/19 07:15:37;;;;;;;47.97;28.77;;;5.70;77.30;;;5.85;61.06;99607.97;5026926;28;20231;-39
2022/03/19 07:18:05;;;;;;;49.10;29.30;;;5.60;77.30;;;5.90;61.32;99603.28;5027009;28;20042;-38
2022/03/19 07:20:33;;;;;;;46.90;28.23;;;5.70;77.60;;;5.89;61.49;99605.09;5026131;28;20205;-39
2022/03/19 07:23:04;;;;;;;45.97;28.37;;;5.80;77.50;;;5.92;61.22;99602.25;5027169;28;20051;-39
2022/03/19 07:25:37;;;;;;;43.50;27.33;;;5.80;76.90;;;5.99;60.81;99600.19;5027332;28;20182;-39
2022/03/19 07:28:11;;;;;;;46.83;27.33;;;5.90;76.30;;;6.05;61.06;99591.06;5025954;28;20055;-38
2022/03/19 07:30:41;;;;;;;47.63;27.85;;;5.90;75.70;;;6.10;60.92;99589.00;5024826;28;20599;-39
2022/03/19 07:33:09;;;;;;;49.93;29.83;;;5.90;75.70;;;6.15;60.55;99596.69;5026793;28;20068;-39
2022/03/19 07:35:39;;;;;;;55.63;30.43;;;6.00;75.90;;;6.18;60.84;99586.75;5025460;28;20059;-39
2022/03/19 07:38:11;;;;;;;43.53;28.15;;;6.00;75.70;;;6.23;60.40;99595.31;5025877;28;20071;-38
2022/03/19 07:43:26;;;;;;;46.23;27.67;;;6.10;74.50;;;6.32;60.46;99583.38;5025248;28;20053;-39
2022/03/19 07:45:54;;;;;;;44.97;26.37;;;6.20;74.50;;;6.37;60.12;99588.38;5026012;28;20068;-38
2022/03/19 07:48:22;;;;;;;45.47;26.60;;;6.20;74.10;;;6.40;60.09;99591.72;5026182;28;20237;-38
2022/03/19 07:50:55;;;;;;;40.22;25.75;;;6.20;73.40;;;6.42;59.20;99586.34;5025517;28;20049;-39
2022/03/19 07:53:23;;;;;;;39.37;25.70;;;6.30;72.00;;;6.46;59.58;99582.56;5026541;28;20248;-39
2022/03/19 07:55:53;;;;;;;39.60;23.20;;;6.40;71.80;;;6.52;59.39;99584.03;5026194;28;20049;-39
2022/03/19 07:58:22;;;;;;;41.83;25.13;;;6.40;71.60;;;6.56;58.81;99585.56;5011210;28;20639;-39
2022/03/19 08:00:50;;;;;;;39.73;23.90;;;6.50;71.40;;;6.62;58.81;99579.91;5007755;28;20057;-39
2022/03/19 08:03:19;;;;;;;35.43;23.37;;;6.50;70.60;;;6.65;58.78;99582.34;5005842;28;20057;-39
2022/03/19 08:05:48;;;;;;;41.90;24.57;;;6.60;70.00;;;6.70;58.55;99583.78;5004687;28;20062;-40
2022/03/19 08:08:16;;;;;;;35.60;21.97;;;6.70;69.90;;;6.75;58.41;99585.34;5006235;28;20113;-40
2022/03/19 08:10:43;;;;;;;38.60;23.53;;;6.70;69.40;;;6.77;58.04;99578.16;5006588;28;20053;-40
2022/03/19 08:13:11;;;;;;;43.67;24.60;;;6.70;68.60;;;6.82;58.29;99584.88;5006585;28;20909;-39
2022/03/19 08:15:41;;;;;;;39.13;22.83;;;6.80;68.70;;;6.84;57.28;99588.31;5005476;28;20309;-39
2022/03/19 08:18:13;;;;;;;33.53;22.90;;;6.80;67.90;;;6.92;57.17;99581.69;5005184;28;20067;-39
2022/03/19 08:20:45;;;;;;;36.83;21.70;;;6.90;68.00;;;6.94;57.55;99574.50;5005564;28;20069;-39
2022/03/19 08:23:16;;;;;;;40.43;23.10;;;6.90;67.30;;;6.94;55.82;99572.72;5004012;28;20064;-39
2022/03/19 08:25:45;;;;;;;37.10;22.90;;;6.90;66.30;;;7.03;57.43;99576.59;5004964;28;20062;-39
2022/03/19 08:28:12;;;;;;;40.13;24.60;;;7.00;67.40;;;7.03;55.46;99571.31;5005669;28;20041;-39
2022/03/19 08:30:40;;;;;;;33.43;21.43;;;7.00;65.30;;;7.09;56.18;99585.06;5004930;28;20073;-39
2022/03/19 08:33:09;;;;;;;33.07;20.73;;;7.10;66.50;;;7.14;55.56;99574.16;5006981;28;20052;-39
2022/03/19 08:35:37;;;;;;;39.53;22.67;;;7.20;65.20;;;7.20;55.96;99573.78;5003576;28;20386;-39
2022/03/19 08:40:52;;;;;;;30.30;20.63;;;7.20;64.70;;;7.28;55.73;99566.22;5005945;28;20058;-38
2022/03/19 08:43:21;;;;;;;34.73;21.07;;;7.30;64.80;;;7.33;55.38;99562.44;5004905;28;20408;-38
2022/03/19 08:45:49;;;;;;;39.80;21.70;;;7.30;64.50;;;7.35;54.80;99565.84;5005157;28;20053;-39
2022/03/19 08:48:20;;;;;;;34.50;22.50;;;7.40;63.90;;;7.40;55.53;99561.97;5005849;28;20057;-38
2022/03/19 08:50:48;;;;;;;35.47;23.40;;;7.40;64.30;;;7.45;55.29;99559.06;5003758;28;20333;-39
2022/03/19 08:53:18;;;;;;;39.27;22.93;;;7.50;64.60;;;7.48;54.38;99561.50;5005246;28;20049;-39
2022/03/19 08:55:46;;;;;;;35.10;23.00;;;7.50;63.00;;;7.51;54.62;99556.03;5004543;28;20357;-39
2022/03/19 08:58:13;;;;;;;33.57;21.87;;;7.60;63.70;;;7.58;55.10;99548.53;5005493;28;20580;-39
2022/03/19 09:00:41;;;;;;;33.60;20.60;;;7.60;64.20;;;7.61;55.27;99551.84;5028489;28;20494;-39
2022/03/19 09:03:09;;;;;;;30.67;21.33;;;7.60;63.80;;;7.66;54.69;99556.88;5032625;28;20056;-39
2022/03/19 09:05:37;;;;;;;36.80;21.90;;;7.60;64.00;;;7.71;54.54;99549.47;5028976;28;20045;-39
2022/03/19 09:08:05;;;;;;;34.37;22.73;;;7.70;63.80;;;7.72;53.50;99550.34;5036123;28;20353;-40
2022/03/19 09:10:33;;;;;;;36.33;23.03;;;7.70;61.90;;;7.76;54.50;99547.38;5033247;28;20316;-39
2022/03/19 09:13:02;;;;;;;34.57;22.33;;;7.80;62.30;;;7.78;53.94;99544.66;5035023;28;20053;-39
2022/03/19 09:15:29;;;;;;;40.97;23.77;;;7.80;62.30;;;7.77;51.93;99534.97;5031831;28;20359;-40
2022/03/19 09:17:58;;;;;;;35.37;22.93;;;7.90;61.10;;;7.86;53.82;99540.53;5033172;28;20139;-40
2022/03/19 09:20:25;;;;;;;34.17;21.07;;;7.90;61.40;;;7.89;53.65;99529.75;5033333;28;20230;-39
2022/03/19 09:22:53;;;;;;;38.20;23.47;;;8.00;61.80;;;7.94;54.09;99526.78;5037185;28;20045;-40
2022/03/19 09:25:21;;;;;;;34.23;23.10;;;8.00;62.50;;;7.98;53.24;99530.09;5045034;28;20063;-39
2022/03/19 09:27:49;;;;;;;32.63;20.57;;;8.00;61.50;;;8.02;53.37;99516.53;5044993;28;20224;-39
2022/03/19 09:30:17;;;;;;;38.10;21.90;;;8.10;62.20;;;8.09;53.79;99525.81;5042980;28;20242;-40
2022/03/19 09:32:44;;;;;;;35.10;22.33;;;8.20;62.20;;;8.10;51.59;99526.66;5045505;28;20063;-39
2022/03/19 09:35:33;;;;;;;37.70;23.50;;;8.20;61.00;;;8.03;50.31;99517.41;5044683;28;20168;-39
2022/03/19 09:38:02;;;;;;;37.27;23.10;;;8.30;58.20;;;8.09;52.48;99511.69;5044930;28;20048;-40
2022/03/19 09:40:30;;;;;;;38.53;23.00;;;8.30;60.20;;;8.16;52.63;99513.00;5043722;28;20060;-39
2022/03/19 09:42:59;;;;;;;34.43;22.77;;;8.30;60.50;;;8.21;53.19;99500.28;5044044;28;20351;-39
2022/03/19 09:45:28;;;;;;;37.93;24.43;;;8.40;61.90;;;8.31;53.42;99499.69;5043530;28;20056;-39
2022/03/19 09:47:56;;;;;;;35.80;23.20;;;8.40;61.50;;;8.36;53.26;99497.56;5044391;28;20057;-40
2022/03/19 09:50:26;;;;;;;33.87;22.63;;;8.40;61.10;;;8.38;52.80;99493.03;5044073;28;20071;-40
2022/03/19 09:52:56;;;;;;;43.33;27.23;;;8.50;60.80;;;8.43;53.08;99491.78;5036840;28;20068;-39
2022/03/19 09:55:29;;;;;;;40.47;26.30;;;8.50;61.20;;;8.49;53.06;99487.84;5046980;28;20288;-38
2022/03/19 09:58:05;;;;;;;40.20;24.97;;;8.60;61.00;;;8.55;53.48;99482.16;5019614;28;20056;-39
2022/03/19 10:00:36;;;;;;;36.60;24.20;;;8.60;61.70;;;8.55;51.24;99468.00;4986443;28;20066;-39
2022/03/19 10:03:11;;;;;;;39.73;24.40;;;8.70;58.90;;;8.64;53.08;99464.72;5032640;28;20052;-39
2022/03/19 10:08:41;;;;;;;40.30;25.10;;;8.70;60.10;;;8.71;52.31;99447.44;5020570;28;20045;-39
2022/03/19 10:11:16;;;;;;;35.30;23.33;;;8.80;59.60;;;8.76;52.46;99445.31;5018044;28;20251;-39
2022/03/19 10:13:51;;;;;;;38.47;24.73;;;8.80;59.60;;;8.76;52.48;99444.44;5034577;28;20061;-39
2022/03/19 10:16:25;;;;;;;39.00;25.00;;;8.90;60.30;;;8.83;52.59;99443.09;5033825;28;20063;-40
2022/03/19 10:19:08;;;;;;;32.17;22.80;;;9.00;60.30;;;8.88;52.44;99433.00;5033527;28;20060;-40
2022/03/19 10:21:41;;;;;;;36.50;24.47;;;9.00;58.80;;;8.92;50.98;99429.16;5034736;28;20051;-39
2022/03/19 10:24:29;;;;;;;35.93;25.00;;;9.00;59.10;;;9.00;51.93;99436.59;5018035;28;20310;-39
2022/03/19 10:27:25;;;;;;;38.67;26.73;;;9.10;57.90;;;9.05;51.75;99426.47;5033640;28;20071;-39
2022/03/19 10:30:27;;;;;;;38.47;24.37;;;9.20;59.00;;;9.13;51.94;99424.16;5032822;28;20045;-39
2022/03/19 10:33:13;;;;;;;41.33;26.13;;;9.30;58.50;;;9.23;51.96;99429.66;5034552;28;20052;-39
2022/03/19 10:36:07;;;;;;;38.43;25.00;;;9.40;59.20;;;9.29;50.57;99420.41;5033684;28;20068;-39
2022/03/19 10:39:04;;;;;;;37.23;25.87;;;9.50;58.60;;;9.37;50.81;99413.56;5035838;28;20377;-39
2022/03/19 10:41:43;;;;;;;38.03;24.43;;;9.50;59.00;;;9.46;51.51;99412.06;5036368;28;20350;-39
2022/03/19 10:44:27;;;;;;;39.87;24.27;;;9.60;59.20;;;9.50;50.63;99402.03;5035597;28;20041;-40
2022/03/19 10:46:59;;;;;;;40.77;25.27;;;9.70;57.90;;;9.58;50.92;99397.88;5021400;28;20057;-39
2022/03/19 10:49:31;;;;;;;37.10;24.87;;;9.70;58.00;;;9.59;49.99;99393.41;5029659;28;20063;-39